createdAt,value
2022-10-20T00:00:24.237Z,95.3
2022-10-20T00:01:24.831Z,95.3
2022-10-20T00:02:25.480Z,95.3
2022-10-20T00:03:26.037Z,94.8
2022-10-20T00:04:26.647Z,95.7
2022-10-20T00:05:27.240Z,95.6
2022-10-20T00:06:27.838Z,95.6
2022-10-20T00:07:28.429Z,95.5
2022-10-20T00:08:29.034Z,95.5
2022-10-20T00:09:29.617Z,95.2
2022-10-20T00:10:30.208Z,95.1
2022-10-20T00:11:30.801Z,95.1
2022-10-20T00:12:31.394Z,95.6
2022-10-20T00:13:31.988Z,96.0
2022-10-20T00:14:32.580Z,95.1
2022-10-20T00:15:33.173Z,95.0
2022-10-20T00:16:33.774Z,94.5
2022-10-20T00:17:34.360Z,94.3
2022-10-20T00:18:34.953Z,94.6
2022-10-20T00:19:35.549Z,94.6
2022-10-20T00:20:36.140Z,94.0
2022-10-20T00:21:36.736Z,94.5
2022-10-20T00:22:37.721Z,94.3
2022-10-20T00:23:38.360Z,94.2
2022-10-20T00:24:38.952Z,94.7
2022-10-20T00:25:39.547Z,94.5
2022-10-20T00:26:40.138Z,94.5
2022-10-20T00:27:40.732Z,94.8
2022-10-20T00:28:41.343Z,95.1
2022-10-20T00:29:41.937Z,95.3
2022-10-20T00:30:42.529Z,94.8
2022-10-20T00:31:43.123Z,94.7
2022-10-20T00:32:43.714Z,94.8
2022-10-20T00:33:44.309Z,94.7
2022-10-20T00:34:44.903Z,94.3
2022-10-20T00:35:45.505Z,94.5
2022-10-20T00:36:50.321Z,94.5
2022-10-20T00:37:47.674Z,94.8
2022-10-20T00:38:48.264Z,94.1
2022-10-20T00:39:48.878Z,94.2
2022-10-20T00:40:49.489Z,94.4
2022-10-20T00:41:50.083Z,94.8
2022-10-20T00:42:50.676Z,94.9
2022-10-20T00:43:51.269Z,95.2
2022-10-20T00:44:51.862Z,95.2
2022-10-20T00:45:52.454Z,95.4
2022-10-20T00:46:53.047Z,95.3
2022-10-20T00:47:53.640Z,96.0
2022-10-20T00:48:54.234Z,95.8
2022-10-20T00:49:54.826Z,96.4
2022-10-20T00:50:55.431Z,95.4
2022-10-20T00:51:56.009Z,95.8
2022-10-20T00:52:56.604Z,95.9
2022-10-20T00:53:57.198Z,96.1
2022-10-20T00:54:57.792Z,96.2
2022-10-20T00:55:58.384Z,96.3
2022-10-20T00:56:59.033Z,96.3
2022-10-20T00:57:59.572Z,96.0
2022-10-20T00:59:00.167Z,96.4
2022-10-20T01:00:00.763Z,96.3
2022-10-20T01:01:01.353Z,96.0
2022-10-20T01:02:02.020Z,95.9
2022-10-20T01:03:02.584Z,95.8
2022-10-20T01:04:03.199Z,95.4
2022-10-20T01:05:03.791Z,96.0
2022-10-20T01:06:04.408Z,95.9
2022-10-20T01:07:04.977Z,95.4
2022-10-20T01:08:05.732Z,95.8
2022-10-20T01:09:06.375Z,96.1
2022-10-20T01:10:06.952Z,96.3
2022-10-20T01:11:07.547Z,96.0
2022-10-20T01:12:08.139Z,95.9
2022-10-20T01:13:08.737Z,95.9
2022-10-20T01:14:09.330Z,96.4
2022-10-20T01:15:10.017Z,95.8
2022-10-20T01:16:10.612Z,96.1
2022-10-20T01:17:11.206Z,96.0
2022-10-20T01:18:11.800Z,95.9
2022-10-20T01:19:12.412Z,96.0
2022-10-20T01:20:13.008Z,96.1
2022-10-20T01:21:13.604Z,95.8
2022-10-20T01:22:14.198Z,94.2
2022-10-20T01:23:14.793Z,94.2
2022-10-20T01:24:15.425Z,94.2
2022-10-20T01:25:15.986Z,94.2
2022-10-20T01:26:16.579Z,94.5
2022-10-20T01:27:17.173Z,94.8
2022-10-20T01:28:17.767Z,95.2
2022-10-20T01:29:18.382Z,95.5
2022-10-20T01:30:18.975Z,95.6
2022-10-20T01:31:19.575Z,95.4
2022-10-20T01:32:20.170Z,95.8
2022-10-20T01:33:20.816Z,95.6
2022-10-20T01:34:21.373Z,95.6
2022-10-20T01:35:21.966Z,96.1
2022-10-20T01:36:22.560Z,95.9
2022-10-20T01:37:34.109Z,95.7
2022-10-20T01:38:24.743Z,96.3
2022-10-20T01:39:25.339Z,96.0
2022-10-20T01:40:25.933Z,96.0
2022-10-20T01:41:26.529Z,95.5
2022-10-20T01:42:27.184Z,96.0
2022-10-20T01:43:27.735Z,96.2
2022-10-20T01:44:28.328Z,96.0
2022-10-20T01:45:28.925Z,95.3
2022-10-20T01:46:29.519Z,95.7
2022-10-20T01:47:30.116Z,95.2
2022-10-20T01:48:30.712Z,95.7
2022-10-20T01:49:31.308Z,95.5
2022-10-20T01:50:31.904Z,95.0
2022-10-20T01:51:32.589Z,94.3
2022-10-20T01:52:33.393Z,94.3
2022-10-20T01:53:34.126Z,94.6
2022-10-20T01:54:34.722Z,94.8
2022-10-20T01:55:35.315Z,94.7
2022-10-20T01:56:35.909Z,95.3
2022-10-20T01:57:36.503Z,95.7
2022-10-20T01:58:37.099Z,95.1
2022-10-20T01:59:37.695Z,95.2
2022-10-20T02:00:38.291Z,94.7
2022-10-20T02:01:38.934Z,94.5
2022-10-20T02:02:39.595Z,94.6
2022-10-20T02:03:40.109Z,94.7
2022-10-20T02:04:40.703Z,94.5
2022-10-20T02:05:41.301Z,95.4
2022-10-20T02:06:41.895Z,95.1
2022-10-20T02:07:42.491Z,95.2
2022-10-20T02:08:43.620Z,95.3
2022-10-20T02:09:44.250Z,95.1
2022-10-20T02:10:44.809Z,94.9
2022-10-20T02:11:45.404Z,94.6
2022-10-20T02:12:45.998Z,94.7
2022-10-20T02:13:46.595Z,94.3
2022-10-20T02:14:47.189Z,94.2
2022-10-20T02:15:47.804Z,94.5
2022-10-20T02:16:48.401Z,94.7
2022-10-20T02:17:48.992Z,94.9
2022-10-20T02:18:49.627Z,94.6
2022-10-20T02:19:50.204Z,94.9
2022-10-20T02:20:50.803Z,94.9
2022-10-20T02:21:51.393Z,94.8
2022-10-20T02:22:51.986Z,94.7
2022-10-20T02:23:52.610Z,95.1
2022-10-20T02:24:53.213Z,95.8
2022-10-20T02:25:53.796Z,95.8
2022-10-20T02:26:54.390Z,95.8
2022-10-20T02:27:55.009Z,96.6
2022-10-20T02:28:55.580Z,96.9
2022-10-20T02:29:56.175Z,96.5
2022-10-20T02:30:56.768Z,96.3
2022-10-20T02:31:57.363Z,96.1
2022-10-20T02:32:57.956Z,95.8
2022-10-20T02:33:58.555Z,96.2
2022-10-20T02:35:03.497Z,96.3
2022-10-20T02:36:00.739Z,96.0
2022-10-20T02:37:01.344Z,96.1
2022-10-20T02:38:01.942Z,96.0
2022-10-20T02:39:02.566Z,96.8
2022-10-20T02:40:03.147Z,96.7
2022-10-20T02:41:03.739Z,96.7
2022-10-20T02:42:04.333Z,96.7
2022-10-20T02:43:04.927Z,96.7
2022-10-20T02:44:05.522Z,97.6
2022-10-20T02:45:06.116Z,97.6
2022-10-20T02:46:06.789Z,97.7
2022-10-20T02:47:07.359Z,97.8
2022-10-20T02:48:08.029Z,98.0
2022-10-20T02:49:08.565Z,98.0
2022-10-20T02:50:09.160Z,97.8
2022-10-20T02:51:09.752Z,97.8
2022-10-20T02:52:10.349Z,97.7
2022-10-20T02:53:10.945Z,97.9
2022-10-20T02:54:11.543Z,98.2
2022-10-20T02:55:12.177Z,97.7
2022-10-20T02:56:12.729Z,97.7
2022-10-20T02:57:13.344Z,97.7
2022-10-20T02:58:13.938Z,97.8
2022-10-20T02:59:14.545Z,98.0
2022-10-20T03:00:15.129Z,98.1
2022-10-20T03:01:15.758Z,98.0
2022-10-20T03:02:16.332Z,98.1
2022-10-20T03:03:16.927Z,97.7
2022-10-20T03:04:17.570Z,97.8
2022-10-20T03:05:18.133Z,97.6
2022-10-20T03:06:18.728Z,98.0
2022-10-20T03:07:19.324Z,98.4
2022-10-20T03:08:19.917Z,98.3
2022-10-20T03:09:20.513Z,98.5
2022-10-20T03:10:21.131Z,98.5
2022-10-20T03:11:21.723Z,98.2
2022-10-20T03:12:22.317Z,98.5
2022-10-20T03:13:22.933Z,98.3
2022-10-20T03:14:23.505Z,98.1
2022-10-20T03:15:24.100Z,98.5
2022-10-20T03:16:24.696Z,98.5
2022-10-20T03:17:25.292Z,98.5
2022-10-20T03:18:25.887Z,98.9
2022-10-20T03:19:26.482Z,98.8
2022-10-20T03:20:27.076Z,98.8
2022-10-20T03:21:27.668Z,99.0
2022-10-20T03:23:28.861Z,99.0
2022-10-20T03:24:29.457Z,99.2
2022-10-20T03:25:30.050Z,98.8
2022-10-20T03:26:30.644Z,98.8
2022-10-20T03:27:31.237Z,98.7
2022-10-20T03:28:31.830Z,99.4
2022-10-20T03:29:32.426Z,98.9
2022-10-20T03:30:33.020Z,98.9
2022-10-20T03:31:33.616Z,98.4
2022-10-20T03:32:34.449Z,98.4
2022-10-20T03:33:35.216Z,98.5
2022-10-20T03:34:35.813Z,98.2
2022-10-20T03:35:36.406Z,98.3
2022-10-20T03:36:36.999Z,98.4
2022-10-20T03:37:37.593Z,98.3
2022-10-20T03:38:38.190Z,97.9
2022-10-20T03:39:38.783Z,98.4
2022-10-20T03:40:39.379Z,98.3
2022-10-20T03:41:39.974Z,98.6
2022-10-20T03:42:40.570Z,98.0
2022-10-20T03:43:41.163Z,97.8
2022-10-20T03:44:41.758Z,97.6
2022-10-20T03:45:42.352Z,97.2
2022-10-20T03:46:42.947Z,96.7
2022-10-20T03:47:43.540Z,96.6
2022-10-20T03:48:44.135Z,97.0
2022-10-20T03:49:44.729Z,97.1
2022-10-20T03:50:45.325Z,97.0
2022-10-20T03:51:45.918Z,97.6
2022-10-20T03:52:46.512Z,97.7
2022-10-20T03:53:47.106Z,97.6
2022-10-20T03:54:47.701Z,98.0
2022-10-20T03:55:48.296Z,97.7
2022-10-20T03:56:48.890Z,98.0
2022-10-20T03:57:49.483Z,97.6
2022-10-20T03:58:50.160Z,98.2
2022-10-20T03:59:50.781Z,98.3
2022-10-20T04:00:51.397Z,98.1
2022-10-20T04:01:52.031Z,97.8
2022-10-20T04:02:52.607Z,97.9
2022-10-20T04:03:53.200Z,98.0
2022-10-20T04:04:53.794Z,97.8
2022-10-20T04:05:54.387Z,97.9
2022-10-20T04:06:54.983Z,97.8
2022-10-20T04:07:55.577Z,98.3
2022-10-20T04:08:56.231Z,98.3
2022-10-20T04:09:56.820Z,98.4
2022-10-20T04:10:57.415Z,98.5
2022-10-20T04:11:58.010Z,98.3
2022-10-20T04:12:58.607Z,98.5
2022-10-20T04:13:59.202Z,98.9
2022-10-20T04:14:59.814Z,98.6
2022-10-20T04:16:00.406Z,98.5
2022-10-20T04:17:01.004Z,98.4
2022-10-20T04:18:01.597Z,98.2
2022-10-20T04:19:02.194Z,98.2
2022-10-20T04:20:02.815Z,98.1
2022-10-20T04:21:03.403Z,97.9
2022-10-20T04:22:03.996Z,98.2
2022-10-20T04:23:04.593Z,98.2
2022-10-20T04:24:05.186Z,98.3
2022-10-20T04:25:05.783Z,98.3
2022-10-20T04:26:06.376Z,98.3
2022-10-20T04:27:06.975Z,98.3
2022-10-20T04:28:07.570Z,98.3
2022-10-20T04:29:08.182Z,98.3
2022-10-20T04:30:08.774Z,98.1
2022-10-20T04:31:09.370Z,97.9
2022-10-20T04:32:09.966Z,97.8
2022-10-20T04:33:10.563Z,97.5
2022-10-20T04:34:11.157Z,96.7
2022-10-20T04:35:11.758Z,96.9
2022-10-20T04:36:12.351Z,96.8
2022-10-20T04:37:12.942Z,97.2
2022-10-20T04:38:13.536Z,96.7
2022-10-20T04:39:14.127Z,96.8
2022-10-20T04:40:14.745Z,96.7
2022-10-20T04:41:15.336Z,96.6
2022-10-20T04:42:15.928Z,96.7
2022-10-20T04:43:16.521Z,96.9
2022-10-20T04:44:17.116Z,97.0
2022-10-20T04:45:17.710Z,96.3
2022-10-20T04:46:18.307Z,97.0
2022-10-20T04:47:18.896Z,96.8
2022-10-20T04:48:19.489Z,96.7
2022-10-20T04:49:20.084Z,96.7
2022-10-20T04:50:20.679Z,96.7
2022-10-20T04:51:21.276Z,96.5
2022-10-20T04:52:21.867Z,96.8
2022-10-20T04:53:22.461Z,96.9
2022-10-20T04:54:23.057Z,97.1
2022-10-20T04:55:23.645Z,97.1
2022-10-20T04:56:24.237Z,97.0
2022-10-20T04:57:24.830Z,97.4
2022-10-20T04:58:25.422Z,97.5
2022-10-20T04:59:26.016Z,97.4
2022-10-20T05:00:26.619Z,97.6
2022-10-20T05:01:27.255Z,97.2
2022-10-20T05:02:27.813Z,97.1
2022-10-20T05:03:28.410Z,97.3
2022-10-20T05:04:29.007Z,97.7
2022-10-20T05:05:29.647Z,97.3
2022-10-20T05:06:30.211Z,97.2
2022-10-20T05:07:30.803Z,96.9
2022-10-20T05:08:31.413Z,97.1
2022-10-20T05:09:31.986Z,97.0
2022-10-20T05:10:35.831Z,96.5
2022-10-20T05:11:34.164Z,96.9
2022-10-20T05:12:35.144Z,96.4
2022-10-20T05:13:35.822Z,96.6
2022-10-20T05:14:36.416Z,96.5
2022-10-20T05:15:37.005Z,96.5
2022-10-20T05:16:37.600Z,96.9
2022-10-20T05:17:38.195Z,96.4
2022-10-20T05:18:38.789Z,96.3
2022-10-20T05:19:39.377Z,96.1
2022-10-20T05:20:41.216Z,95.9
2022-10-20T05:22:42.155Z,94.2
2022-10-20T05:23:42.749Z,94.3
2022-10-20T05:24:43.340Z,94.3
2022-10-20T05:25:43.932Z,94.2
2022-10-20T05:26:44.526Z,94.7
2022-10-20T05:27:45.118Z,95.0
2022-10-20T05:28:45.714Z,95.4
2022-10-20T05:29:46.352Z,95.1
2022-10-20T05:30:46.906Z,95.3
2022-10-20T05:31:47.494Z,95.2
2022-10-20T05:32:48.088Z,95.6
2022-10-20T05:33:48.682Z,95.4
2022-10-20T05:34:49.275Z,95.3
2022-10-20T05:35:49.870Z,95.4
2022-10-20T05:36:50.464Z,95.8
2022-10-20T05:37:51.058Z,95.3
2022-10-20T05:38:51.651Z,94.6
2022-10-20T05:39:52.245Z,94.7
2022-10-20T05:40:52.859Z,94.8
2022-10-20T05:41:53.449Z,94.9
2022-10-20T05:42:54.044Z,95.0
2022-10-20T05:43:54.637Z,95.4
2022-10-20T05:44:55.235Z,94.2
2022-10-20T05:45:55.829Z,94.0
2022-10-20T05:46:56.425Z,93.8
2022-10-20T05:47:57.019Z,94.0
2022-10-20T05:48:57.615Z,94.0
2022-10-20T05:49:58.210Z,94.1
2022-10-20T05:50:58.805Z,94.2
2022-10-20T05:51:59.400Z,94.3
2022-10-20T05:52:59.996Z,94.2
2022-10-20T05:54:00.601Z,94.2
2022-10-20T05:55:01.190Z,94.4
2022-10-20T05:56:01.787Z,94.3
2022-10-20T05:57:02.384Z,94.5
2022-10-20T05:58:02.979Z,94.7
2022-10-20T05:59:03.576Z,94.2
2022-10-20T06:00:04.172Z,94.2
2022-10-20T06:01:04.786Z,94.3
2022-10-20T06:02:05.380Z,94.0
2022-10-20T06:03:06.083Z,94.4
2022-10-20T06:04:06.675Z,94.6
2022-10-20T06:05:07.273Z,95.0
2022-10-20T06:06:07.868Z,94.7
2022-10-20T06:07:08.466Z,95.1
2022-10-20T06:08:09.061Z,95.6
2022-10-20T06:09:09.658Z,95.3
2022-10-20T06:10:10.254Z,95.7
2022-10-20T06:11:10.853Z,95.1
2022-10-20T06:12:11.452Z,94.9
2022-10-20T06:13:12.050Z,95.1
2022-10-20T06:14:12.647Z,94.6
2022-10-20T06:15:13.248Z,94.8
2022-10-20T06:16:13.844Z,94.8
2022-10-20T06:17:14.441Z,94.3
2022-10-20T06:18:15.036Z,93.9
2022-10-20T06:19:15.634Z,93.4
2022-10-20T06:20:16.232Z,92.9
2022-10-20T06:21:16.829Z,92.8
2022-10-20T06:22:17.426Z,91.3
2022-10-20T06:23:18.024Z,92.2
2022-10-20T06:24:18.622Z,92.4
2022-10-20T06:25:19.222Z,91.4
2022-10-20T06:26:19.824Z,92.4
2022-10-20T06:27:20.419Z,91.2
2022-10-20T06:28:21.017Z,91.9
2022-10-20T06:29:21.617Z,91.9
2022-10-20T06:30:22.213Z,91.6
2022-10-20T06:31:22.832Z,92.2
2022-10-20T06:32:23.411Z,91.4
2022-10-20T06:33:24.006Z,91.7
2022-10-20T06:34:24.658Z,91.8
2022-10-20T06:35:25.250Z,91.7
2022-10-20T06:36:25.847Z,91.6
2022-10-20T06:37:26.444Z,91.8
2022-10-20T06:38:27.041Z,92.2
2022-10-20T06:39:27.639Z,92.3
2022-10-20T06:40:28.235Z,90.7
2022-10-20T06:41:28.834Z,90.8
2022-10-20T06:42:29.430Z,90.1
2022-10-20T06:43:30.031Z,89.6
2022-10-20T06:44:30.648Z,88.7
2022-10-20T06:45:31.245Z,87.5
2022-10-20T06:46:31.842Z,87.0
2022-10-20T06:47:32.441Z,86.8
2022-10-20T06:48:33.064Z,86.2
2022-10-20T06:49:33.657Z,85.8
2022-10-20T06:50:34.251Z,85.0
2022-10-20T06:51:34.859Z,86.2
2022-10-20T06:52:35.618Z,85.9
2022-10-20T06:53:36.320Z,86.5
2022-10-20T06:54:36.917Z,85.9
2022-10-20T06:55:37.516Z,86.3
2022-10-20T06:56:38.113Z,85.9
2022-10-20T06:57:38.731Z,85.7
2022-10-20T06:58:39.328Z,85.9
2022-10-20T06:59:39.935Z,86.5
2022-10-20T07:00:40.523Z,86.4
2022-10-20T07:01:41.209Z,87.2
2022-10-20T07:02:41.774Z,86.6
2022-10-20T07:03:42.377Z,86.8
2022-10-20T07:04:42.969Z,86.7
2022-10-20T07:05:43.567Z,87.3
2022-10-20T07:06:44.162Z,88.0
2022-10-20T07:07:44.760Z,88.3
2022-10-20T07:08:45.473Z,88.9
2022-10-20T07:09:46.086Z,88.5
2022-10-20T07:10:46.681Z,88.6
2022-10-20T07:11:47.279Z,88.6
2022-10-20T07:12:47.875Z,88.5
2022-10-20T07:13:48.473Z,88.0
2022-10-20T07:14:49.131Z,87.3
2022-10-20T07:15:49.693Z,87.0
2022-10-20T07:16:50.289Z,86.4
2022-10-20T07:17:50.887Z,86.4
2022-10-20T07:18:51.508Z,85.4
2022-10-20T07:19:52.280Z,85.7
2022-10-20T07:20:52.878Z,86.4
2022-10-20T07:21:53.532Z,85.7
2022-10-20T07:22:54.095Z,86.8
2022-10-20T07:23:54.696Z,87.1
2022-10-20T07:24:55.317Z,86.9
2022-10-20T07:25:55.915Z,87.8
2022-10-20T07:26:56.515Z,87.9
2022-10-20T07:27:57.112Z,87.9
2022-10-20T07:28:57.715Z,87.9
2022-10-20T07:29:58.311Z,87.7
2022-10-20T07:30:58.908Z,87.4
2022-10-20T07:32:01.434Z,87.5
2022-10-20T07:33:01.099Z,87.4
2022-10-20T07:34:12.880Z,87.7
2022-10-20T07:35:03.292Z,87.6
2022-10-20T07:36:03.894Z,87.7
2022-10-20T07:37:04.512Z,87.4
2022-10-20T07:38:05.114Z,87.4
2022-10-20T07:39:05.712Z,87.9
2022-10-20T07:40:06.515Z,87.8
2022-10-20T07:41:07.113Z,88.0
2022-10-20T07:42:07.714Z,88.0
2022-10-20T07:43:08.312Z,87.9
2022-10-20T07:44:08.913Z,88.0
2022-10-20T07:45:09.510Z,87.9
2022-10-20T07:46:10.112Z,88.4
2022-10-20T07:47:10.708Z,88.4
2022-10-20T07:48:11.308Z,89.1
2022-10-20T07:49:42.293Z,88.5
2022-10-20T07:50:13.497Z,88.5
2022-10-20T07:52:14.704Z,89.1
2022-10-20T07:53:15.299Z,89.4
2022-10-20T07:54:15.898Z,89.2
2022-10-20T07:55:33.402Z,89.0
2022-10-20T07:56:18.088Z,89.0
2022-10-20T07:57:18.688Z,88.8
2022-10-20T07:58:19.287Z,89.2
2022-10-20T07:59:19.884Z,89.1
2022-10-20T08:00:20.503Z,88.4
2022-10-20T08:01:21.135Z,88.3
2022-10-20T08:02:21.759Z,88.8
2022-10-20T08:03:22.320Z,88.8
2022-10-20T08:04:22.919Z,89.6
2022-10-20T08:05:23.517Z,89.4
2022-10-20T08:06:24.115Z,89.0
2022-10-20T08:07:24.712Z,88.7
2022-10-20T08:08:25.436Z,88.9
2022-10-20T08:09:26.006Z,88.7
2022-10-20T08:10:26.604Z,88.6
2022-10-20T08:11:27.212Z,88.8
2022-10-20T08:12:27.826Z,88.8
2022-10-20T08:13:28.439Z,88.6
2022-10-20T08:14:29.038Z,89.1
2022-10-20T08:15:29.639Z,89.6
2022-10-20T08:16:30.257Z,89.5
2022-10-20T08:17:30.867Z,89.0
2022-10-20T08:18:31.682Z,89.4
2022-10-20T08:19:39.547Z,89.4
2022-10-20T08:20:40.172Z,88.7
2022-10-20T08:21:40.767Z,88.5
2022-10-20T08:22:41.385Z,88.9
2022-10-20T08:23:41.981Z,88.4
2022-10-20T08:24:42.582Z,88.4
2022-10-20T08:25:43.180Z,88.6
2022-10-20T08:26:43.781Z,88.4
2022-10-20T08:27:44.380Z,88.8
2022-10-20T08:28:44.978Z,88.5
2022-10-20T08:29:50.963Z,88.5
2022-10-20T08:30:47.167Z,88.9
2022-10-20T08:31:47.777Z,88.9
2022-10-20T08:32:48.386Z,88.6
2022-10-20T08:33:52.609Z,88.9
2022-10-20T08:34:50.594Z,88.8
2022-10-20T08:35:51.214Z,89.5
2022-10-20T08:36:51.813Z,89.6
2022-10-20T08:37:52.433Z,88.7
2022-10-20T08:38:53.034Z,88.3
2022-10-20T08:39:53.631Z,88.8
2022-10-20T08:40:54.233Z,88.3
2022-10-20T08:42:08.160Z,88.3
2022-10-20T08:42:56.332Z,88.2
2022-10-20T08:43:56.948Z,87.4
2022-10-20T08:44:57.567Z,87.7
2022-10-20T08:45:58.164Z,88.0
2022-10-20T08:46:58.762Z,87.9
2022-10-20T08:47:59.360Z,88.2
2022-10-20T08:48:59.967Z,88.3
2022-10-20T08:50:00.576Z,88.8
2022-10-20T08:51:01.174Z,89.0
2022-10-20T08:52:01.788Z,88.3
2022-10-20T08:53:02.371Z,88.8
2022-10-20T08:54:02.969Z,88.3
2022-10-20T08:55:03.568Z,87.7
2022-10-20T08:56:04.165Z,87.7
2022-10-20T08:57:04.766Z,87.9
2022-10-20T08:58:05.363Z,88.1
2022-10-20T08:59:05.961Z,87.6
2022-10-20T09:00:09.007Z,86.7
2022-10-20T09:01:08.157Z,87.3
2022-10-20T09:02:08.790Z,87.4
2022-10-20T09:03:09.371Z,86.6
2022-10-20T09:04:09.970Z,86.9
2022-10-20T09:05:12.894Z,86.5
2022-10-20T09:06:12.163Z,86.0
2022-10-20T09:07:12.764Z,86.2
2022-10-20T09:08:13.364Z,86.2
2022-10-20T09:09:14.039Z,86.2
2022-10-20T09:10:14.580Z,84.8
2022-10-20T09:11:15.181Z,85.1
2022-10-20T09:12:15.781Z,84.6
2022-10-20T09:13:16.383Z,85.1
2022-10-20T09:14:16.982Z,85.4
2022-10-20T09:15:17.590Z,85.4
2022-10-20T09:16:27.303Z,86.0
2022-10-20T09:17:19.780Z,85.3
2022-10-20T09:18:20.381Z,85.4
2022-10-20T09:19:20.981Z,84.5
2022-10-20T09:20:21.588Z,84.6
2022-10-20T09:21:22.184Z,85.5
2022-10-20T09:22:22.783Z,84.5
2022-10-20T09:23:39.989Z,84.3
2022-10-20T09:24:24.980Z,85.0
2022-10-20T09:25:25.580Z,84.3
2022-10-20T09:26:32.147Z,84.4
2022-10-20T09:27:27.777Z,83.5
2022-10-20T09:28:34.245Z,83.9
2022-10-20T09:29:28.991Z,83.4
2022-10-20T09:30:29.607Z,84.2
2022-10-20T09:31:30.193Z,83.6
2022-10-20T09:32:47.671Z,84.5
2022-10-20T09:33:32.385Z,83.6
2022-10-20T09:34:32.985Z,83.9
2022-10-20T09:35:33.586Z,84.2
2022-10-20T09:36:34.187Z,83.4
2022-10-20T09:37:34.787Z,83.6
2022-10-20T09:38:35.387Z,83.5
2022-10-20T09:39:39.198Z,83.4
2022-10-20T09:40:37.602Z,84.2
2022-10-20T09:41:38.200Z,84.8
2022-10-20T09:42:39.133Z,83.4
2022-10-20T09:43:39.887Z,85.0
2022-10-20T09:44:40.486Z,84.2
2022-10-20T09:45:41.105Z,83.9
2022-10-20T09:46:41.706Z,84.2
2022-10-20T09:47:42.307Z,83.4
2022-10-20T09:48:42.908Z,83.5
2022-10-20T09:49:43.508Z,83.8
2022-10-20T09:50:44.111Z,83.3
2022-10-20T09:51:44.726Z,84.4
2022-10-20T09:52:45.311Z,83.8
2022-10-20T09:53:45.920Z,83.9
2022-10-20T09:54:46.535Z,84.0
2022-10-20T09:55:47.131Z,83.6
2022-10-20T09:56:47.753Z,83.6
2022-10-20T09:57:48.382Z,83.0
2022-10-20T09:58:48.953Z,83.7
2022-10-20T09:59:49.573Z,83.0
2022-10-20T10:00:50.207Z,83.5
2022-10-20T10:01:50.782Z,83.3
2022-10-20T10:02:51.383Z,83.3
2022-10-20T10:03:51.985Z,83.3
2022-10-20T10:04:52.586Z,83.7
2022-10-20T10:05:53.184Z,82.3
2022-10-20T10:06:53.787Z,82.9
2022-10-20T10:07:54.406Z,81.4
2022-10-20T10:08:55.043Z,80.6
2022-10-20T10:09:55.620Z,80.0
2022-10-20T10:10:56.229Z,79.5
2022-10-20T10:11:56.845Z,79.6
2022-10-20T10:12:57.494Z,80.3
2022-10-20T10:13:58.082Z,79.9
2022-10-20T10:14:58.700Z,79.6
2022-10-20T10:15:59.300Z,80.0
2022-10-20T10:16:59.906Z,77.9
2022-10-20T10:18:00.526Z,79.5
2022-10-20T10:19:01.172Z,78.3
2022-10-20T10:20:01.746Z,77.8
2022-10-20T10:21:02.366Z,78.0
2022-10-20T10:22:02.964Z,77.7
2022-10-20T10:23:03.571Z,79.1
2022-10-20T10:24:04.172Z,79.2
2022-10-20T10:25:04.773Z,78.4
2022-10-20T10:26:05.372Z,79.2
2022-10-20T10:27:05.975Z,78.2
2022-10-20T10:28:06.574Z,78.2
2022-10-20T10:29:07.176Z,80.1
2022-10-20T10:30:07.776Z,80.8
2022-10-20T10:31:08.375Z,79.8
2022-10-20T10:32:08.976Z,80.0
2022-10-20T10:33:09.580Z,81.1
2022-10-20T10:34:10.179Z,80.8
2022-10-20T10:35:10.780Z,80.9
2022-10-20T10:36:11.380Z,80.2
2022-10-20T10:37:12.050Z,79.8
2022-10-20T10:38:12.621Z,79.7
2022-10-20T10:39:13.243Z,79.8
2022-10-20T10:40:13.847Z,78.7
2022-10-20T10:41:14.449Z,78.5
2022-10-20T10:42:15.046Z,79.5
2022-10-20T10:43:15.646Z,79.9
2022-10-20T10:44:16.247Z,79.9
2022-10-20T10:45:16.851Z,80.7
2022-10-20T10:46:17.451Z,79.5
2022-10-20T10:47:18.053Z,79.9
2022-10-20T10:48:18.672Z,77.6
2022-10-20T10:49:19.273Z,78.1
2022-10-20T10:50:19.872Z,79.6
2022-10-20T10:51:20.478Z,78.6
2022-10-20T10:52:21.097Z,77.6
2022-10-20T10:53:21.702Z,77.0
2022-10-20T10:54:22.298Z,76.6
2022-10-20T10:55:47.260Z,75.7
2022-10-20T10:56:24.495Z,75.3
2022-10-20T10:57:25.112Z,74.6
2022-10-20T10:58:25.713Z,74.4
2022-10-20T10:59:26.312Z,75.4
2022-10-20T11:00:26.912Z,75.7
2022-10-20T11:01:27.513Z,75.7
2022-10-20T11:02:28.113Z,75.3
2022-10-20T11:03:28.714Z,75.6
2022-10-20T11:04:29.316Z,75.3
2022-10-20T11:05:29.919Z,75.3
2022-10-20T11:06:30.536Z,75.1
2022-10-20T11:07:31.137Z,74.4
2022-10-20T11:08:31.790Z,75.0
2022-10-20T11:09:32.339Z,73.1
2022-10-20T11:10:32.936Z,74.1
2022-10-20T11:11:33.538Z,74.2
2022-10-20T11:12:34.140Z,74.4
2022-10-20T11:13:34.742Z,74.6
2022-10-20T11:14:35.341Z,74.1
2022-10-20T11:15:35.949Z,73.0
2022-10-20T11:16:36.540Z,73.9
2022-10-20T11:17:37.492Z,74.5
2022-10-20T11:18:38.137Z,73.9
2022-10-20T11:19:38.738Z,73.4
2022-10-20T11:20:39.337Z,73.1
2022-10-20T11:21:39.939Z,72.5
2022-10-20T11:22:40.561Z,72.5
2022-10-20T11:23:41.164Z,72.3
2022-10-20T11:25:55.117Z,71.2
2022-10-20T11:26:55.737Z,71.3
2022-10-20T11:27:56.339Z,72.8
2022-10-20T11:28:56.940Z,71.5
2022-10-20T11:29:57.542Z,71.1
2022-10-20T11:30:58.140Z,71.0
2022-10-20T11:31:58.742Z,70.7
2022-10-20T11:32:59.346Z,69.7
2022-10-20T11:33:59.950Z,69.2
2022-10-20T11:35:00.571Z,69.8
2022-10-20T11:36:01.192Z,69.5
2022-10-20T11:37:01.791Z,69.2
2022-10-20T11:38:02.411Z,69.4
2022-10-20T11:39:03.012Z,69.6
2022-10-20T11:40:07.567Z,69.7
2022-10-20T11:41:05.211Z,69.7
2022-10-20T11:42:05.814Z,70.0
2022-10-20T11:43:08.871Z,69.5
2022-10-20T11:44:08.077Z,70.5
2022-10-20T11:45:08.684Z,70.5
2022-10-20T11:46:09.282Z,71.0
2022-10-20T11:47:09.883Z,69.6
2022-10-20T11:48:10.484Z,70.2
2022-10-20T11:49:11.084Z,70.5
2022-10-20T11:50:11.751Z,70.7
2022-10-20T11:51:12.338Z,71.1
2022-10-20T11:52:12.939Z,71.3
2022-10-20T11:53:13.541Z,71.3
2022-10-20T11:54:14.142Z,71.3
2022-10-20T11:55:14.743Z,71.5
2022-10-20T11:56:15.344Z,72.3
2022-10-20T11:57:15.943Z,71.2
2022-10-20T11:58:16.546Z,71.3
2022-10-20T11:59:17.145Z,71.6
2022-10-20T12:00:17.749Z,73.3
2022-10-20T12:01:18.349Z,72.9
2022-10-20T12:02:19.043Z,72.3
2022-10-20T12:03:19.566Z,72.5
2022-10-20T12:04:20.166Z,73.0
2022-10-20T12:05:20.767Z,73.3
2022-10-20T12:06:21.368Z,71.8
2022-10-20T12:07:21.967Z,72.4
2022-10-20T12:08:29.774Z,72.3
2022-10-20T12:09:24.301Z,73.2
2022-10-20T12:10:24.776Z,71.8
2022-10-20T12:11:25.397Z,71.5
2022-10-20T12:12:25.997Z,73.0
2022-10-20T12:13:26.597Z,72.8
2022-10-20T12:14:27.217Z,72.3
2022-10-20T12:15:27.821Z,72.8
2022-10-20T12:16:28.422Z,73.0
2022-10-20T12:17:29.020Z,73.2
2022-10-20T12:18:29.623Z,71.5
2022-10-20T12:19:30.222Z,71.2
2022-10-20T12:20:30.822Z,71.8
2022-10-20T12:21:33.800Z,71.9
2022-10-20T12:22:33.018Z,71.6
2022-10-20T12:23:33.618Z,71.4
2022-10-20T12:24:34.241Z,72.0
2022-10-20T12:25:34.859Z,71.4
2022-10-20T12:26:35.456Z,71.6
2022-10-20T12:27:36.078Z,71.2
2022-10-20T12:28:36.698Z,71.3
2022-10-20T12:29:37.299Z,70.6
2022-10-20T12:30:37.912Z,70.2
2022-10-20T12:31:38.503Z,71.2
2022-10-20T12:32:39.350Z,71.1
2022-10-20T12:33:39.721Z,70.7
2022-10-20T12:34:40.324Z,70.5
2022-10-20T12:35:40.924Z,70.5
2022-10-20T12:36:41.544Z,70.9
2022-10-20T12:37:44.818Z,70.8
2022-10-20T12:38:43.758Z,70.8
2022-10-20T12:39:44.357Z,71.5
2022-10-20T12:40:44.966Z,71.6
2022-10-20T12:41:45.863Z,71.7
2022-10-20T12:42:46.412Z,71.8
2022-10-20T12:43:47.010Z,71.4
2022-10-20T12:44:47.614Z,70.8
2022-10-20T12:45:48.211Z,71.9
2022-10-20T12:46:48.813Z,71.2
2022-10-20T12:47:49.413Z,71.3
2022-10-20T12:48:50.031Z,72.5
2022-10-20T12:49:50.630Z,72.8
2022-10-20T12:50:51.232Z,73.1
2022-10-20T12:51:51.844Z,73.1
2022-10-20T12:52:52.443Z,71.6
2022-10-20T12:53:53.043Z,73.6
2022-10-20T12:54:53.643Z,73.0
2022-10-20T12:55:54.245Z,73.4
2022-10-20T12:56:54.842Z,73.3
2022-10-20T12:57:55.461Z,73.8
2022-10-20T12:58:56.062Z,74.1
2022-10-20T12:59:56.662Z,73.5
2022-10-20T13:00:57.304Z,74.1
2022-10-20T13:01:57.881Z,73.8
2022-10-20T13:02:58.478Z,73.6
2022-10-20T13:03:59.077Z,73.5
2022-10-20T13:04:59.680Z,73.5
2022-10-20T13:06:00.277Z,73.2
2022-10-20T13:07:00.881Z,73.9
2022-10-20T13:08:01.479Z,74.5
2022-10-20T13:09:02.139Z,74.6
2022-10-20T13:10:04.346Z,75.2
2022-10-20T13:11:03.335Z,75.3
2022-10-20T13:12:03.941Z,74.6
2022-10-20T13:13:04.555Z,75.0
2022-10-20T13:14:05.165Z,75.0
2022-10-20T13:15:05.787Z,74.9
2022-10-20T13:16:06.384Z,75.2
2022-10-20T13:17:06.984Z,74.9
2022-10-20T13:18:07.583Z,75.3
2022-10-20T13:19:08.184Z,75.3
2022-10-20T13:20:08.783Z,75.8
2022-10-20T13:21:09.385Z,75.7
2022-10-20T13:22:09.984Z,75.5
2022-10-20T13:23:10.587Z,76.4
2022-10-20T13:24:11.186Z,76.5
2022-10-20T13:25:11.784Z,76.5
2022-10-20T13:26:12.388Z,75.6
2022-10-20T13:27:12.981Z,76.4
2022-10-20T13:28:13.578Z,75.7
2022-10-20T13:29:14.178Z,75.7
2022-10-20T13:30:14.775Z,76.4
2022-10-20T13:31:15.374Z,76.6